sensor_id;sensor_type;location;lat;lon;timestamp;P1;durP1;ratioP1;P2;durP2;ratioP2
56005;SDS011;41888;44.696;10.522;2023-04-03T00:01:41;3.35;;;1.83;;
56005;SDS011;41888;44.696;10.522;2023-04-03T00:04:07;3.65;;;1.67;;
56005;SDS011;41888;44.696;10.522;2023-04-03T00:06:33;3.53;;;1.67;;
56005;SDS011;41888;44.696;10.522;2023-04-03T00:09:00;3.78;;;1.98;;
56005;SDS011;41888;44.696;10.522;2023-04-03T00:11:26;2.55;;;1.98;;
56005;SDS011;41888;44.696;10.522;2023-04-03T00:13:52;3.38;;;1.85;;
56005;SDS011;41888;44.696;10.522;2023-04-03T00:16:18;3.75;;;1.80;;
56005;SDS011;41888;44.696;10.522;2023-04-03T00:18:45;4.18;;;1.83;;
56005;SDS011;41888;44.696;10.522;2023-04-03T00:21:12;3.67;;;1.77;;
56005;SDS011;41888;44.696;10.522;2023-04-03T00:23:39;2.95;;;1.90;;
56005;SDS011;41888;44.696;10.522;2023-04-03T00:26:05;3.47;;;1.80;;
56005;SDS011;41888;44.696;10.522;2023-04-03T00:28:31;4.10;;;2.05;;
56005;SDS011;41888;44.696;10.522;2023-04-03T00:30:58;4.55;;;1.77;;
56005;SDS011;41888;44.696;10.522;2023-04-03T00:33:24;2.67;;;1.60;;
56005;SDS011;41888;44.696;10.522;2023-04-03T00:35:50;3.67;;;2.20;;
56005;SDS011;41888;44.696;10.522;2023-04-03T00:38:17;5.65;;;1.88;;
56005;SDS011;41888;44.696;10.522;2023-04-03T00:40:44;3.92;;;1.80;;
56005;SDS011;41888;44.696;10.522;2023-04-03T00:43:12;3.42;;;1.65;;
56005;SDS011;41888;44.696;10.522;2023-04-03T00:45:42;5.38;;;2.03;;
56005;SDS011;41888;44.696;10.522;2023-04-03T00:48:11;4.05;;;1.85;;
56005;SDS011;41888;44.696;10.522;2023-04-03T00:50:42;4.43;;;1.95;;
56005;SDS011;41888;44.696;10.522;2023-04-03T00:53:11;2.85;;;1.75;;
56005;SDS011;41888;44.696;10.522;2023-04-03T00:55:48;4.13;;;1.90;;
56005;SDS011;41888;44.696;10.522;2023-04-03T00:58:16;2.60;;;1.80;;
56005;SDS011;41888;44.696;10.522;2023-04-03T01:00:46;4.55;;;1.80;;
56005;SDS011;41888;44.696;10.522;2023-04-03T01:03:21;4.95;;;2.15;;
56005;SDS011;41888;44.696;10.522;2023-04-03T01:05:47;2.97;;;1.52;;
56005;SDS011;41888;44.696;10.522;2023-04-03T01:08:13;4.85;;;2.00;;
56005;SDS011;41888;44.696;10.522;2023-04-03T01:10:40;3.35;;;1.83;;
56005;SDS011;41888;44.696;10.522;2023-04-03T01:13:28;4.55;;;2.15;;
56005;SDS011;41888;44.696;10.522;2023-04-03T01:15:57;5.40;;;2.13;;
56005;SDS011;41888;44.696;10.522;2023-04-03T01:18:25;2.67;;;1.70;;
56005;SDS011;41888;44.696;10.522;2023-04-03T01:26:08;6.50;;;2.00;;
56005;SDS011;41888;44.696;10.522;2023-04-03T01:28:36;5.57;;;2.10;;
56005;SDS011;41888;44.696;10.522;2023-04-03T01:31:07;4.53;;;1.90;;
56005;SDS011;41888;44.696;10.522;2023-04-03T01:33:49;7.20;;;2.15;;
56005;SDS011;41888;44.696;10.522;2023-04-03T01:36:20;3.15;;;1.70;;
56005;SDS011;41888;44.696;10.522;2023-04-03T01:38:49;3.38;;;1.98;;
56005;SDS011;41888;44.696;10.522;2023-04-03T01:41:16;4.25;;;1.90;;
56005;SDS011;41888;44.696;10.522;2023-04-03T01:43:42;5.22;;;2.05;;
56005;SDS011;41888;44.696;10.522;2023-04-03T01:46:08;5.57;;;2.33;;
56005;SDS011;41888;44.696;10.522;2023-04-03T01:48:35;6.75;;;2.20;;
56005;SDS011;41888;44.696;10.522;2023-04-03T01:51:01;4.28;;;2.15;;
56005;SDS011;41888;44.696;10.522;2023-04-03T01:53:28;9.20;;;2.60;;
56005;SDS011;41888;44.696;10.522;2023-04-03T01:55:54;4.78;;;2.40;;
56005;SDS011;41888;44.696;10.522;2023-04-03T01:58:20;3.25;;;2.00;;
56005;SDS011;41888;44.696;10.522;2023-04-03T02:00:46;5.53;;;2.20;;
56005;SDS011;41888;44.696;10.522;2023-04-03T02:03:13;6.40;;;2.47;;
56005;SDS011;41888;44.696;10.522;2023-04-03T02:05:39;9.35;;;2.63;;
56005;SDS011;41888;44.696;10.522;2023-04-03T02:08:06;5.72;;;2.20;;
56005;SDS011;41888;44.696;10.522;2023-04-03T02:10:32;4.40;;;2.20;;
56005;SDS011;41888;44.696;10.522;2023-04-03T02:12:58;9.75;;;2.40;;
56005;SDS011;41888;44.696;10.522;2023-04-03T02:15:24;4.70;;;2.38;;
56005;SDS011;41888;44.696;10.522;2023-04-03T02:17:51;5.82;;;2.10;;
56005;SDS011;41888;44.696;10.522;2023-04-03T02:20:17;6.45;;;2.50;;
56005;SDS011;41888;44.696;10.522;2023-04-03T02:22:43;6.05;;;2.05;;
56005;SDS011;41888;44.696;10.522;2023-04-03T02:25:10;3.80;;;2.00;;
56005;SDS011;41888;44.696;10.522;2023-04-03T02:27:37;5.80;;;2.05;;
56005;SDS011;41888;44.696;10.522;2023-04-03T02:30:04;5.10;;;2.28;;
56005;SDS011;41888;44.696;10.522;2023-04-03T02:32:31;6.13;;;2.33;;
56005;SDS011;41888;44.696;10.522;2023-04-03T02:34:57;7.53;;;2.22;;
56005;SDS011;41888;44.696;10.522;2023-04-03T02:37:23;7.10;;;2.38;;
56005;SDS011;41888;44.696;10.522;2023-04-03T02:39:49;10.00;;;2.83;;
56005;SDS011;41888;44.696;10.522;2023-04-03T02:42:16;3.92;;;2.10;;
56005;SDS011;41888;44.696;10.522;2023-04-03T02:44:42;5.90;;;3.17;;
56005;SDS011;41888;44.696;10.522;2023-04-03T02:47:08;5.50;;;1.83;;
56005;SDS011;41888;44.696;10.522;2023-04-03T02:49:34;5.25;;;2.20;;
56005;SDS011;41888;44.696;10.522;2023-04-03T02:52:00;5.57;;;2.25;;
56005;SDS011;41888;44.696;10.522;2023-04-03T02:54:26;6.07;;;2.13;;
56005;SDS011;41888;44.696;10.522;2023-04-03T02:56:55;3.83;;;2.13;;
56005;SDS011;41888;44.696;10.522;2023-04-03T02:59:21;6.10;;;1.98;;
56005;SDS011;41888;44.696;10.522;2023-04-03T03:01:48;5.57;;;2.38;;
56005;SDS011;41888;44.696;10.522;2023-04-03T03:04:14;7.38;;;2.97;;
56005;SDS011;41888;44.696;10.522;2023-04-03T03:06:40;9.10;;;2.60;;
56005;SDS011;41888;44.696;10.522;2023-04-03T03:09:06;4.38;;;2.30;;
56005;SDS011;41888;44.696;10.522;2023-04-03T03:11:33;4.85;;;2.25;;
56005;SDS011;41888;44.696;10.522;2023-04-03T03:13:59;3.63;;;2.22;;
56005;SDS011;41888;44.696;10.522;2023-04-03T03:16:25;6.78;;;2.22;;
56005;SDS011;41888;44.696;10.522;2023-04-03T03:18:51;5.30;;;2.47;;
56005;SDS011;41888;44.696;10.522;2023-04-03T03:21:18;7.57;;;2.92;;
56005;SDS011;41888;44.696;10.522;2023-04-03T03:23:44;3.85;;;2.53;;
56005;SDS011;41888;44.696;10.522;2023-04-03T03:26:10;5.15;;;2.47;;
56005;SDS011;41888;44.696;10.522;2023-04-03T03:28:37;6.05;;;2.60;;
56005;SDS011;41888;44.696;10.522;2023-04-03T03:31:04;4.43;;;2.30;;
56005;SDS011;41888;44.696;10.522;2023-04-03T03:33:31;6.85;;;2.78;;
56005;SDS011;41888;44.696;10.522;2023-04-03T03:35:57;6.95;;;2.67;;
56005;SDS011;41888;44.696;10.522;2023-04-03T03:38:24;4.80;;;2.40;;
56005;SDS011;41888;44.696;10.522;2023-04-03T03:40:51;4.72;;;2.15;;
56005;SDS011;41888;44.696;10.522;2023-04-03T03:43:19;4.40;;;2.20;;
56005;SDS011;41888;44.696;10.522;2023-04-03T03:45:49;6.63;;;2.15;;
56005;SDS011;41888;44.696;10.522;2023-04-03T03:48:19;4.95;;;2.45;;
56005;SDS011;41888;44.696;10.522;2023-04-03T03:50:46;8.60;;;3.83;;
56005;SDS011;41888;44.696;10.522;2023-04-03T03:53:13;4.10;;;2.17;;
56005;SDS011;41888;44.696;10.522;2023-04-03T03:55:40;8.05;;;2.25;;
56005;SDS011;41888;44.696;10.522;2023-04-03T03:58:06;6.35;;;2.55;;
56005;SDS011;41888;44.696;10.522;2023-04-03T04:00:32;6.22;;;2.22;;
56005;SDS011;41888;44.696;10.522;2023-04-03T04:02:58;5.55;;;2.85;;
56005;SDS011;41888;44.696;10.522;2023-04-03T04:05:25;3.58;;;2.30;;
56005;SDS011;41888;44.696;10.522;2023-04-03T04:07:51;4.53;;;2.42;;
56005;SDS011;41888;44.696;10.522;2023-04-03T04:10:17;4.30;;;2.30;;
56005;SDS011;41888;44.696;10.522;2023-04-03T04:12:44;4.85;;;2.70;;
56005;SDS011;41888;44.696;10.522;2023-04-03T04:15:10;4.30;;;2.22;;
56005;SDS011;41888;44.696;10.522;2023-04-03T04:17:36;5.32;;;2.60;;
56005;SDS011;41888;44.696;10.522;2023-04-03T04:20:03;5.05;;;2.70;;
56005;SDS011;41888;44.696;10.522;2023-04-03T04:22:30;5.43;;;2.60;;
56005;SDS011;41888;44.696;10.522;2023-04-03T04:24:56;3.90;;;2.33;;
56005;SDS011;41888;44.696;10.522;2023-04-03T04:27:22;5.20;;;2.25;;
56005;SDS011;41888;44.696;10.522;2023-04-03T04:29:48;7.22;;;2.78;;
56005;SDS011;41888;44.696;10.522;2023-04-03T04:32:14;4.25;;;2.67;;
56005;SDS011;41888;44.696;10.522;2023-04-03T04:34:41;4.63;;;2.50;;
56005;SDS011;41888;44.696;10.522;2023-04-03T04:37:07;5.22;;;2.30;;
56005;SDS011;41888;44.696;10.522;2023-04-03T04:39:33;8.07;;;2.60;;
56005;SDS011;41888;44.696;10.522;2023-04-03T04:41:59;5.55;;;2.60;;
56005;SDS011;41888;44.696;10.522;2023-04-03T04:44:25;6.75;;;2.72;;
56005;SDS011;41888;44.696;10.522;2023-04-03T04:46:52;7.68;;;2.65;;
56005;SDS011;41888;44.696;10.522;2023-04-03T04:49:18;5.43;;;2.40;;
56005;SDS011;41888;44.696;10.522;2023-04-03T04:51:44;8.98;;;2.60;;
56005;SDS011;41888;44.696;10.522;2023-04-03T04:54:10;7.68;;;3.17;;
56005;SDS011;41888;44.696;10.522;2023-04-03T04:56:37;4.05;;;2.55;;
56005;SDS011;41888;44.696;10.522;2023-04-03T04:59:03;4.28;;;2.63;;
56005;SDS011;41888;44.696;10.522;2023-04-03T05:01:29;5.50;;;3.17;;
56005;SDS011;41888;44.696;10.522;2023-04-03T05:03:55;6.45;;;2.80;;
56005;SDS011;41888;44.696;10.522;2023-04-03T05:06:22;4.63;;;2.88;;
56005;SDS011;41888;44.696;10.522;2023-04-03T05:08:48;4.47;;;2.63;;
56005;SDS011;41888;44.696;10.522;2023-04-03T05:11:14;5.68;;;2.90;;
56005;SDS011;41888;44.696;10.522;2023-04-03T05:13:40;7.88;;;3.60;;
56005;SDS011;41888;44.696;10.522;2023-04-03T05:16:06;6.97;;;3.22;;
56005;SDS011;41888;44.696;10.522;2023-04-03T05:18:32;5.95;;;2.95;;
56005;SDS011;41888;44.696;10.522;2023-04-03T05:20:58;4.25;;;2.95;;
56005;SDS011;41888;44.696;10.522;2023-04-03T05:23:25;7.55;;;2.78;;
56005;SDS011;41888;44.696;10.522;2023-04-03T05:25:51;7.57;;;3.72;;
56005;SDS011;41888;44.696;10.522;2023-04-03T05:28:18;5.93;;;3.80;;
56005;SDS011;41888;44.696;10.522;2023-04-03T05:30:44;8.20;;;3.10;;
56005;SDS011;41888;44.696;10.522;2023-04-03T05:33:10;8.77;;;2.58;;
56005;SDS011;41888;44.696;10.522;2023-04-03T05:35:37;6.25;;;2.53;;
56005;SDS011;41888;44.696;10.522;2023-04-03T05:38:05;3.92;;;2.13;;
56005;SDS011;41888;44.696;10.522;2023-04-03T05:40:31;7.00;;;2.60;;
56005;SDS011;41888;44.696;10.522;2023-04-03T05:42:57;6.80;;;2.75;;
56005;SDS011;41888;44.696;10.522;2023-04-03T05:45:24;4.43;;;2.22;;
56005;SDS011;41888;44.696;10.522;2023-04-03T05:47:50;6.65;;;2.45;;
56005;SDS011;41888;44.696;10.522;2023-04-03T05:50:16;8.32;;;2.50;;
56005;SDS011;41888;44.696;10.522;2023-04-03T05:52:43;7.65;;;3.08;;
56005;SDS011;41888;44.696;10.522;2023-04-03T05:55:11;6.25;;;2.50;;
56005;SDS011;41888;44.696;10.522;2023-04-03T05:57:38;10.75;;;3.80;;
56005;SDS011;41888;44.696;10.522;2023-04-03T06:00:07;7.10;;;2.92;;
56005;SDS011;41888;44.696;10.522;2023-04-03T06:02:37;8.93;;;2.90;;
56005;SDS011;41888;44.696;10.522;2023-04-03T06:05:04;6.68;;;3.05;;
56005;SDS011;41888;44.696;10.522;2023-04-03T06:07:32;6.95;;;3.63;;
56005;SDS011;41888;44.696;10.522;2023-04-03T06:09:58;8.63;;;3.03;;
56005;SDS011;41888;44.696;10.522;2023-04-03T06:12:26;5.93;;;3.28;;
56005;SDS011;41888;44.696;10.522;2023-04-03T06:14:54;6.20;;;3.00;;
56005;SDS011;41888;44.696;10.522;2023-04-03T06:17:21;5.65;;;2.58;;
56005;SDS011;41888;44.696;10.522;2023-04-03T06:19:47;10.38;;;2.90;;
56005;SDS011;41888;44.696;10.522;2023-04-03T06:22:13;6.82;;;3.30;;
56005;SDS011;41888;44.696;10.522;2023-04-03T06:24:40;7.60;;;2.80;;
56005;SDS011;41888;44.696;10.522;2023-04-03T06:27:06;6.78;;;2.85;;
56005;SDS011;41888;44.696;10.522;2023-04-03T06:29:34;7.40;;;3.17;;
56005;SDS011;41888;44.696;10.522;2023-04-03T06:32:02;6.90;;;3.30;;
56005;SDS011;41888;44.696;10.522;2023-04-03T06:34:28;5.57;;;3.13;;
56005;SDS011;41888;44.696;10.522;2023-04-03T06:36:54;9.05;;;3.30;;
56005;SDS011;41888;44.696;10.522;2023-04-03T06:39:21;7.13;;;3.25;;
56005;SDS011;41888;44.696;10.522;2023-04-03T06:41:48;5.32;;;3.65;;
56005;SDS011;41888;44.696;10.522;2023-04-03T06:44:15;6.63;;;3.70;;
56005;SDS011;41888;44.696;10.522;2023-04-03T06:46:42;6.50;;;3.92;;
56005;SDS011;41888;44.696;10.522;2023-04-03T06:49:11;5.32;;;3.45;;
56005;SDS011;41888;44.696;10.522;2023-04-03T06:51:37;7.03;;;3.83;;
56005;SDS011;41888;44.696;10.522;2023-04-03T06:54:04;6.10;;;4.25;;
56005;SDS011;41888;44.696;10.522;2023-04-03T06:56:31;5.32;;;4.05;;
56005;SDS011;41888;44.696;10.522;2023-04-03T06:58:58;6.15;;;4.35;;
56005;SDS011;41888;44.696;10.522;2023-04-03T07:01:25;6.13;;;4.68;;
56005;SDS011;41888;44.696;10.522;2023-04-03T07:03:52;5.22;;;4.22;;
56005;SDS011;41888;44.696;10.522;2023-04-03T07:06:19;6.97;;;4.32;;
56005;SDS011;41888;44.696;10.522;2023-04-03T07:08:46;7.25;;;5.20;;
56005;SDS011;41888;44.696;10.522;2023-04-03T07:11:15;5.85;;;4.72;;
56005;SDS011;41888;44.696;10.522;2023-04-03T07:13:42;6.07;;;4.90;;
56005;SDS011;41888;44.696;10.522;2023-04-03T07:16:08;7.65;;;5.50;;
56005;SDS011;41888;44.696;10.522;2023-04-03T07:18:35;8.02;;;5.38;;
56005;SDS011;41888;44.696;10.522;2023-04-03T07:21:01;9.65;;;6.60;;
56005;SDS011;41888;44.696;10.522;2023-04-03T07:23:28;7.88;;;5.50;;
56005;SDS011;41888;44.696;10.522;2023-04-03T07:25:54;11.23;;;5.63;;
56005;SDS011;41888;44.696;10.522;2023-04-03T07:28:21;9.00;;;6.93;;
56005;SDS011;41888;44.696;10.522;2023-04-03T07:30:49;8.02;;;6.75;;
56005;SDS011;41888;44.696;10.522;2023-04-03T07:33:23;9.25;;;6.78;;
56005;SDS011;41888;44.696;10.522;2023-04-03T07:35:50;9.32;;;6.30;;
56005;SDS011;41888;44.696;10.522;2023-04-03T07:38:16;10.50;;;6.72;;
56005;SDS011;41888;44.696;10.522;2023-04-03T07:40:49;9.30;;;7.10;;
56005;SDS011;41888;44.696;10.522;2023-04-03T07:43:17;10.32;;;7.00;;
56005;SDS011;41888;44.696;10.522;2023-04-03T07:45:46;12.18;;;7.75;;
56005;SDS011;41888;44.696;10.522;2023-04-03T07:48:15;9.38;;;7.07;;
56005;SDS011;41888;44.696;10.522;2023-04-03T07:50:45;13.50;;;7.28;;
56005;SDS011;41888;44.696;10.522;2023-04-03T07:53:11;10.32;;;7.13;;
56005;SDS011;41888;44.696;10.522;2023-04-03T07:55:38;13.55;;;7.50;;
56005;SDS011;41888;44.696;10.522;2023-04-03T07:58:11;13.02;;;7.18;;
56005;SDS011;41888;44.696;10.522;2023-04-03T08:00:40;10.77;;;7.32;;
56005;SDS011;41888;44.696;10.522;2023-04-03T08:03:07;10.25;;;7.60;;
56005;SDS011;41888;44.696;10.522;2023-04-03T08:05:42;10.30;;;6.85;;
56005;SDS011;41888;44.696;10.522;2023-04-03T08:08:11;12.05;;;8.15;;
56005;SDS011;41888;44.696;10.522;2023-04-03T08:10:39;12.00;;;8.13;;
56005;SDS011;41888;44.696;10.522;2023-04-03T08:13:06;13.13;;;8.35;;
56005;SDS011;41888;44.696;10.522;2023-04-03T08:15:33;14.40;;;8.35;;
56005;SDS011;41888;44.696;10.522;2023-04-03T08:18:00;11.27;;;7.85;;
56005;SDS011;41888;44.696;10.522;2023-04-03T08:20:26;13.65;;;8.85;;
56005;SDS011;41888;44.696;10.522;2023-04-03T08:22:53;10.43;;;8.02;;
56005;SDS011;41888;44.696;10.522;2023-04-03T08:25:19;11.90;;;8.10;;
56005;SDS011;41888;44.696;10.522;2023-04-03T08:27:46;11.98;;;7.35;;
56005;SDS011;41888;44.696;10.522;2023-04-03T08:30:13;11.48;;;7.30;;
56005;SDS011;41888;44.696;10.522;2023-04-03T08:32:39;11.00;;;8.20;;
56005;SDS011;41888;44.696;10.522;2023-04-03T08:35:08;12.27;;;7.78;;
56005;SDS011;41888;44.696;10.522;2023-04-03T08:37:35;14.82;;;8.48;;
56005;SDS011;41888;44.696;10.522;2023-04-03T08:40:03;11.15;;;8.02;;
56005;SDS011;41888;44.696;10.522;2023-04-03T08:42:49;11.48;;;7.80;;
56005;SDS011;41888;44.696;10.522;2023-04-03T08:50:45;21.65;;;10.98;;
56005;SDS011;41888;44.696;10.522;2023-04-03T08:53:18;12.52;;;8.82;;
56005;SDS011;41888;44.696;10.522;2023-04-03T08:55:50;12.70;;;8.57;;
56005;SDS011;41888;44.696;10.522;2023-04-03T08:58:19;11.93;;;7.72;;
56005;SDS011;41888;44.696;10.522;2023-04-03T09:03:32;15.10;;;8.90;;
56005;SDS011;41888;44.696;10.522;2023-04-03T09:14:39;13.10;;;7.75;;
56005;SDS011;41888;44.696;10.522;2023-04-03T09:17:26;15.07;;;7.25;;
56005;SDS011;41888;44.696;10.522;2023-04-03T09:19:58;12.27;;;8.55;;
56005;SDS011;41888;44.696;10.522;2023-04-03T09:22:42;10.88;;;8.35;;
56005;SDS011;41888;44.696;10.522;2023-04-03T09:27:47;9.27;;;6.40;;
56005;SDS011;41888;44.696;10.522;2023-04-03T09:30:15;9.30;;;5.47;;
56005;SDS011;41888;44.696;10.522;2023-04-03T09:32:46;7.93;;;4.65;;
56005;SDS011;41888;44.696;10.522;2023-04-03T09:38:00;7.15;;;4.70;;
56005;SDS011;41888;44.696;10.522;2023-04-03T09:43:51;3.53;;;2.13;;
56005;SDS011;41888;44.696;10.522;2023-04-03T09:45:56;8.73;;;3.30;;
56005;SDS011;41888;44.696;10.522;2023-04-03T09:49:03;5.53;;;3.67;;
56005;SDS011;41888;44.696;10.522;2023-04-03T09:51:31;5.28;;;3.78;;
56005;SDS011;41888;44.696;10.522;2023-04-03T09:53:58;8.07;;;4.43;;
56005;SDS011;41888;44.696;10.522;2023-04-03T09:56:25;7.45;;;4.93;;
56005;SDS011;41888;44.696;10.522;2023-04-03T10:06:40;6.88;;;4.57;;
56005;SDS011;41888;44.696;10.522;2023-04-03T10:09:30;9.27;;;6.15;;
56005;SDS011;41888;44.696;10.522;2023-04-03T10:14:39;6.00;;;4.07;;
56005;SDS011;41888;44.696;10.522;2023-04-03T10:17:25;7.93;;;4.38;;
56005;SDS011;41888;44.696;10.522;2023-04-03T10:36:59;5.35;;;3.10;;
56005;SDS011;41888;44.696;10.522;2023-04-03T10:39:45;7.03;;;4.90;;
56005;SDS011;41888;44.696;10.522;2023-04-03T10:53:52;7.75;;;4.03;;
56005;SDS011;41888;44.696;10.522;2023-04-03T11:01:30;7.63;;;3.72;;
56005;SDS011;41888;44.696;10.522;2023-04-03T11:04:03;4.65;;;3.58;;
56005;SDS011;41888;44.696;10.522;2023-04-03T11:06:53;4.38;;;2.72;;
56005;SDS011;41888;44.696;10.522;2023-04-03T11:09:36;4.20;;;2.47;;
56005;SDS011;41888;44.696;10.522;2023-04-03T11:12:23;4.20;;;1.88;;
56005;SDS011;41888;44.696;10.522;2023-04-03T11:14:56;10.10;;;3.75;;
56005;SDS011;41888;44.696;10.522;2023-04-03T11:17:39;3.75;;;2.60;;
56005;SDS011;41888;44.696;10.522;2023-04-03T11:20:29;7.35;;;2.80;;
56005;SDS011;41888;44.696;10.522;2023-04-03T11:23:06;4.72;;;2.80;;
56005;SDS011;41888;44.696;10.522;2023-04-03T11:25:46;5.85;;;2.83;;
56005;SDS011;41888;44.696;10.522;2023-04-03T11:28:17;7.25;;;2.10;;
56005;SDS011;41888;44.696;10.522;2023-04-03T11:33:37;3.05;;;1.77;;
56005;SDS011;41888;44.696;10.522;2023-04-03T11:36:26;2.63;;;1.48;;
56005;SDS011;41888;44.696;10.522;2023-04-03T11:38:57;3.55;;;1.40;;
56005;SDS011;41888;44.696;10.522;2023-04-03T11:41:30;2.40;;;1.50;;
56005;SDS011;41888;44.696;10.522;2023-04-03T11:44:01;4.68;;;1.98;;
56005;SDS011;41888;44.696;10.522;2023-04-03T11:46:58;3.80;;;2.08;;
56005;SDS011;41888;44.696;10.522;2023-04-03T11:52:10;2.55;;;1.60;;
56005;SDS011;41888;44.696;10.522;2023-04-03T12:05:58;2.50;;;1.45;;
56005;SDS011;41888;44.696;10.522;2023-04-03T12:19:04;2.50;;;1.20;;
56005;SDS011;41888;44.696;10.522;2023-04-03T12:24:27;4.50;;;2.08;;
56005;SDS011;41888;44.696;10.522;2023-04-03T12:35:16;5.53;;;2.90;;
56005;SDS011;41888;44.696;10.522;2023-04-03T12:41:14;4.45;;;2.88;;
56005;SDS011;41888;44.696;10.522;2023-04-03T12:44:00;4.65;;;2.55;;
56005;SDS011;41888;44.696;10.522;2023-04-03T12:46:39;3.78;;;2.38;;
56005;SDS011;41888;44.696;10.522;2023-04-03T12:51:53;3.90;;;2.55;;
56005;SDS011;41888;44.696;10.522;2023-04-03T12:54:26;3.95;;;2.13;;
56005;SDS011;41888;44.696;10.522;2023-04-03T12:57:12;5.55;;;2.30;;
56005;SDS011;41888;44.696;10.522;2023-04-03T12:59:41;5.88;;;2.92;;
56005;SDS011;41888;44.696;10.522;2023-04-03T13:02:19;4.20;;;2.55;;
56005;SDS011;41888;44.696;10.522;2023-04-03T13:04:48;7.30;;;3.38;;
56005;SDS011;41888;44.696;10.522;2023-04-03T13:07:20;7.70;;;4.28;;
56005;SDS011;41888;44.696;10.522;2023-04-03T13:17:54;30.80;;;3.75;;
56005;SDS011;41888;44.696;10.522;2023-04-03T13:25:21;8.25;;;2.90;;
56005;SDS011;41888;44.696;10.522;2023-04-03T13:27:51;5.82;;;2.63;;
56005;SDS011;41888;44.696;10.522;2023-04-03T13:30:20;5.00;;;2.45;;
56005;SDS011;41888;44.696;10.522;2023-04-03T13:32:49;4.97;;;2.65;;
56005;SDS011;41888;44.696;10.522;2023-04-03T13:37:55;6.00;;;2.40;;
56005;SDS011;41888;44.696;10.522;2023-04-03T13:40:23;5.78;;;2.95;;
56005;SDS011;41888;44.696;10.522;2023-04-03T13:43:04;3.65;;;3.03;;
56005;SDS011;41888;44.696;10.522;2023-04-03T13:45:52;3.40;;;1.70;;
56005;SDS011;41888;44.696;10.522;2023-04-03T13:48:24;3.08;;;1.70;;
56005;SDS011;41888;44.696;10.522;2023-04-03T13:51:32;2.47;;;1.88;;
56005;SDS011;41888;44.696;10.522;2023-04-03T13:53:44;4.70;;;2.03;;
56005;SDS011;41888;44.696;10.522;2023-04-03T13:56:18;3.25;;;1.75;;
56005;SDS011;41888;44.696;10.522;2023-04-03T14:01:23;2.42;;;1.52;;
56005;SDS011;41888;44.696;10.522;2023-04-03T14:03:58;7.38;;;1.80;;
56005;SDS011;41888;44.696;10.522;2023-04-03T14:06:26;2.28;;;1.60;;
56005;SDS011;41888;44.696;10.522;2023-04-03T14:08:53;3.72;;;1.70;;
56005;SDS011;41888;44.696;10.522;2023-04-03T14:11:24;3.70;;;1.35;;
56005;SDS011;41888;44.696;10.522;2023-04-03T14:13:54;4.03;;;1.88;;
56005;SDS011;41888;44.696;10.522;2023-04-03T14:16:28;5.95;;;1.77;;
56005;SDS011;41888;44.696;10.522;2023-04-03T14:18:57;3.05;;;1.40;;
56005;SDS011;41888;44.696;10.522;2023-04-03T14:21:24;8.48;;;1.50;;
56005;SDS011;41888;44.696;10.522;2023-04-03T14:23:50;8.85;;;1.90;;
56005;SDS011;41888;44.696;10.522;2023-04-03T14:26:18;5.45;;;1.63;;
56005;SDS011;41888;44.696;10.522;2023-04-03T14:28:48;2.35;;;1.65;;
56005;SDS011;41888;44.696;10.522;2023-04-03T14:31:16;4.07;;;1.27;;
56005;SDS011;41888;44.696;10.522;2023-04-03T14:33:43;1.20;;;0.68;;
56005;SDS011;41888;44.696;10.522;2023-04-03T14:36:11;2.03;;;1.00;;
56005;SDS011;41888;44.696;10.522;2023-04-03T14:38:39;4.82;;;0.98;;
56005;SDS011;41888;44.696;10.522;2023-04-03T14:41:06;2.70;;;0.80;;
56005;SDS011;41888;44.696;10.522;2023-04-03T14:43:33;2.10;;;0.77;;
56005;SDS011;41888;44.696;10.522;2023-04-03T14:45:59;1.30;;;0.70;;
56005;SDS011;41888;44.696;10.522;2023-04-03T14:48:26;3.38;;;1.08;;
56005;SDS011;41888;44.696;10.522;2023-04-03T14:50:55;2.15;;;0.85;;
56005;SDS011;41888;44.696;10.522;2023-04-03T14:53:21;3.03;;;0.65;;
56005;SDS011;41888;44.696;10.522;2023-04-03T14:55:50;1.60;;;0.73;;
56005;SDS011;41888;44.696;10.522;2023-04-03T14:58:19;1.83;;;0.60;;
56005;SDS011;41888;44.696;10.522;2023-04-03T15:00:46;0.70;;;0.50;;
56005;SDS011;41888;44.696;10.522;2023-04-03T15:03:13;5.07;;;0.70;;
56005;SDS011;41888;44.696;10.522;2023-04-03T15:05:42;0.57;;;0.32;;
56005;SDS011;41888;44.696;10.522;2023-04-03T15:08:17;5.22;;;0.80;;
56005;SDS011;41888;44.696;10.522;2023-04-03T15:10:46;1.48;;;0.47;;
56005;SDS011;41888;44.696;10.522;2023-04-03T15:13:12;1.73;;;0.65;;
56005;SDS011;41888;44.696;10.522;2023-04-03T15:15:39;1.05;;;0.50;;
56005;SDS011;41888;44.696;10.522;2023-04-03T15:18:06;2.25;;;0.60;;
56005;SDS011;41888;44.696;10.522;2023-04-03T15:20:36;2.90;;;1.20;;
56005;SDS011;41888;44.696;10.522;2023-04-03T15:23:02;3.08;;;0.70;;
56005;SDS011;41888;44.696;10.522;2023-04-03T15:25:29;1.63;;;0.93;;
56005;SDS011;41888;44.696;10.522;2023-04-03T15:27:56;5.88;;;0.98;;
56005;SDS011;41888;44.696;10.522;2023-04-03T15:30:24;2.53;;;1.48;;
56005;SDS011;41888;44.696;10.522;2023-04-03T15:32:50;3.85;;;0.70;;
56005;SDS011;41888;44.696;10.522;2023-04-03T15:35:18;3.72;;;0.90;;
56005;SDS011;41888;44.696;10.522;2023-04-03T15:37:44;2.78;;;1.00;;
56005;SDS011;41888;44.696;10.522;2023-04-03T15:40:11;3.70;;;0.93;;
56005;SDS011;41888;44.696;10.522;2023-04-03T15:42:37;4.53;;;1.25;;
56005;SDS011;41888;44.696;10.522;2023-04-03T15:45:04;1.33;;;0.70;;
56005;SDS011;41888;44.696;10.522;2023-04-03T15:47:31;1.60;;;0.75;;
56005;SDS011;41888;44.696;10.522;2023-04-03T15:49:57;4.40;;;1.10;;
56005;SDS011;41888;44.696;10.522;2023-04-03T15:52:24;5.03;;;1.88;;
56005;SDS011;41888;44.696;10.522;2023-04-03T15:54:50;2.42;;;0.85;;
56005;SDS011;41888;44.696;10.522;2023-04-03T15:57:16;2.30;;;1.08;;
56005;SDS011;41888;44.696;10.522;2023-04-03T15:59:42;2.58;;;0.75;;
56005;SDS011;41888;44.696;10.522;2023-04-03T16:02:09;4.00;;;0.88;;
56005;SDS011;41888;44.696;10.522;2023-04-03T16:04:37;2.30;;;0.80;;
56005;SDS011;41888;44.696;10.522;2023-04-03T16:07:04;3.88;;;0.65;;
56005;SDS011;41888;44.696;10.522;2023-04-03T16:09:31;0.68;;;0.47;;
56005;SDS011;41888;44.696;10.522;2023-04-03T16:11:58;2.83;;;1.23;;
56005;SDS011;41888;44.696;10.522;2023-04-03T16:14:25;2.97;;;0.85;;
56005;SDS011;41888;44.696;10.522;2023-04-03T16:16:53;1.73;;;0.73;;
56005;SDS011;41888;44.696;10.522;2023-04-03T16:19:20;2.78;;;1.23;;
56005;SDS011;41888;44.696;10.522;2023-04-03T16:21:46;3.50;;;0.90;;
56005;SDS011;41888;44.696;10.522;2023-04-03T16:24:12;6.20;;;1.30;;
56005;SDS011;41888;44.696;10.522;2023-04-03T16:26:39;6.25;;;1.10;;
56005;SDS011;41888;44.696;10.522;2023-04-03T16:29:05;3.53;;;1.58;;
56005;SDS011;41888;44.696;10.522;2023-04-03T16:31:32;2.53;;;0.90;;
56005;SDS011;41888;44.696;10.522;2023-04-03T16:33:58;2.10;;;0.68;;
56005;SDS011;41888;44.696;10.522;2023-04-03T16:36:25;2.03;;;0.75;;
56005;SDS011;41888;44.696;10.522;2023-04-03T16:38:52;2.08;;;0.80;;
56005;SDS011;41888;44.696;10.522;2023-04-03T16:41:18;4.85;;;1.05;;
56005;SDS011;41888;44.696;10.522;2023-04-03T16:43:44;2.08;;;1.00;;
56005;SDS011;41888;44.696;10.522;2023-04-03T16:46:11;5.32;;;1.30;;
56005;SDS011;41888;44.696;10.522;2023-04-03T16:48:37;4.75;;;0.98;;
56005;SDS011;41888;44.696;10.522;2023-04-03T16:51:03;2.05;;;0.82;;
56005;SDS011;41888;44.696;10.522;2023-04-03T16:53:29;5.00;;;1.13;;
56005;SDS011;41888;44.696;10.522;2023-04-03T16:55:56;1.85;;;0.75;;
56005;SDS011;41888;44.696;10.522;2023-04-03T16:58:23;3.70;;;1.13;;
56005;SDS011;41888;44.696;10.522;2023-04-03T17:00:49;1.45;;;0.80;;